LFSGELLX

Guest
Details From LFSG - Epinal Mirecourt
To ELLX - Luxembourg
Flight Number -
Tags generated
Created
Modified
Stats Distance 78 nm / 145 km
Max Altitude 7,200 ft / 2,195 m
Waypoints 3
Social Downloads 1
Likes 0
Share VATSIM

Download

Looking for another format? Having issues loading an existing format? Contact us
Advertisement - Login to hide

Notes

Basic altitude profile: - Ascent Rate: 2500ft/min - Ascent Speed: 250kts - Cruise Altitude: 35000ft - Cruise Speed: 420kts - Descent Rate: 1500ft/min - Descent Speed: 250kts Options: - Use NATs: yes - Use PACOTS: yes - Use low airways: yes - Use high airways: yes

Route

LFSG MET ELLX

ID Type Via Altitude Latitude Longitude Leg Dist Tot Dist Heading (true) Name
O LFSG APT - 0 ft / 0 m 48.32519˚ 6.06996˚ - 0 nm - Epinal Mirecourt
MET VOR - 7,200 ft / 2,195 m 49.06694˚ 6.12939˚ 44 nm 44 nm 3° / 3° -
O ELLX APT - 0 ft / 0 m 49.62660˚ 6.21151˚ 33 nm 78 nm 5° / 5° Luxembourg

Altitude Profile

Advertisement - Login to hide

LFSG

Details ICAO LFSG (EPL)
Name Epinal Mirecourt
Region France
Timezone Europe/Paris (UTC+1.0)
Stats Elevation 1,084 ft / 330 m (AMSL)
Location 48.325189° 6.069958°
Runways 1
Magnetic Variation 1.685° E

METAR

LFSG 121930Z AUTO 16004KT 9999 BKN037 OVC045 01/M00 Q1016

Decode

TAF

Not found

Departure Runways

ID Width Length Bearing (true) Bearing (mag) Surface Threshold Offset Overrun Length
09 147 ft / 45 m 8,835 ft / 2,693 m 85.05° 83.37° Concrete 0 ft / 0 m 1,662 ft / 507 m
27 147 ft / 45 m 8,835 ft / 2,693 m 265.08° 263.40° Concrete 846 ft / 258 m 0 ft / 0 m

ELLX

Details ICAO ELLX (LUX)
Name Luxembourg
Region Luxembourg
Timezone Europe/Luxembourg (UTC+1.0)
Stats Elevation 1,158 ft / 353 m (AMSL)
Location 49.626599° 6.211506°
Runways 1
Magnetic Variation 1.689° E

METAR

ELLX 121920Z 23008KT 200V260 9999 FEW007 BKN009 01/M00 Q1014 NOSIG

Decode

TAF

TAF AMD ELLX 121900Z 1218/1324 24010KT 9999 BKN005 BECMG 1222/1224 18005KT 2500 BR BKN003 BECMG 1306/1309 18015G25KT 3000 -SN BKN005 BKN007 BECMG 1313/1315 7000 -RA BKN015 TEMPO 1313/1318 RA BKN012 BECMG 1320/1322 RA SCT005 BKN007 BECMG 1322/1324 25015G30KT

Decode

Destination Runways

ID Width Length Bearing (true) Bearing (mag) Surface Threshold Offset Overrun Length
06 197 ft / 60 m 13,135 ft / 4,004 m 60.14° 58.45° Asphalt 0 ft / 0 m 0 ft / 0 m
24 197 ft / 60 m 13,135 ft / 4,004 m 240.18° 238.49° Asphalt 0 ft / 0 m 180 ft / 55 m

Approach Navaids

Runway Type Ident Frequency Range Bearing (true) Bearing (mag) Slope Elevation
06 Localiser ILE 109.90 MHz 18 nm / 33 km 60.21° 58.52° - 1,158 ft / 353 m (AMSL)
06 Glidescope ILE 109.90 MHz 10 nm / 19 km 60.16° 58.47° 3.00° 1,158 ft / 353 m (AMSL)
06 DME ILE 109.90 MHz 18 nm / 33 km - - - 1,158 ft / 353 m (AMSL)
24 Localiser ILW 110.70 MHz 18 nm / 33 km 239.94° 238.25° - 1,158 ft / 353 m (AMSL)
24 Glidescope ILW 110.70 MHz 10 nm / 19 km 240.16° 238.47° 3.00° 1,158 ft / 353 m (AMSL)
24 DME ILW 110.70 MHz 18 nm / 33 km - - - 1,158 ft / 353 m (AMSL)